sensor_id;sensor_type;location;lat;lon;timestamp;pressure;altitude;pressure_sealevel;temperature;humidity
53689;BME280;39583;54.682;30.662;2023-01-27T11:46:30;100052.44;;;0.73;100.00
53689;BME280;39583;54.682;30.662;2023-01-27T11:48:57;100049.44;;;1.05;100.00
53689;BME280;39583;54.682;30.662;2023-01-27T11:51:37;100043.66;;;1.20;99.42
53689;BME280;39583;54.682;30.662;2023-01-27T11:54:21;100049.75;;;1.30;97.73
53689;BME280;39583;54.682;30.662;2023-01-27T11:56:49;100043.56;;;1.39;96.38
53689;BME280;39583;54.682;30.662;2023-01-27T11:59:29;100053.59;;;1.45;96.03
53689;BME280;39583;54.682;30.662;2023-01-27T12:07:16;100046.91;;;1.41;94.32
53689;BME280;39583;54.682;30.662;2023-01-27T12:09:44;100040.91;;;1.39;94.18
53689;BME280;39583;54.682;30.662;2023-01-27T12:14:53;100053.47;;;1.46;93.99
53689;BME280;39583;54.682;30.662;2023-01-27T12:17:25;100056.50;;;1.52;93.57
53689;BME280;39583;54.682;30.662;2023-01-27T12:19:56;100034.38;;;1.33;93.53
53689;BME280;39583;54.682;30.662;2023-01-27T12:22:29;100061.31;;;1.38;93.40
53689;BME280;39583;54.682;30.662;2023-01-27T12:25:00;100056.97;;;1.37;93.54
53689;BME280;39583;54.682;30.662;2023-01-27T12:27:32;100066.91;;;1.35;93.69
53689;BME280;39583;54.682;30.662;2023-01-27T12:30:05;100057.84;;;1.28;93.37
53689;BME280;39583;54.682;30.662;2023-01-27T12:32:43;100061.78;;;1.24;93.55
53689;BME280;39583;54.682;30.662;2023-01-27T12:35:36;100061.25;;;1.21;93.83
53689;BME280;39583;54.682;30.662;2023-01-27T12:38:23;100056.09;;;1.19;93.51
53689;BME280;39583;54.682;30.662;2023-01-27T12:41:05;100065.44;;;1.13;93.78
53689;BME280;39583;54.682;30.662;2023-01-27T12:43:49;100077.47;;;1.08;93.72
53689;BME280;39583;54.682;30.662;2023-01-27T12:46:23;100078.72;;;1.04;93.44
53689;BME280;39583;54.682;30.662;2023-01-27T12:48:52;100082.09;;;0.96;93.47
53689;BME280;39583;54.682;30.662;2023-01-27T12:51:33;100083.78;;;0.87;93.79
53689;BME280;39583;54.682;30.662;2023-01-27T12:54:27;100067.09;;;0.68;93.48
53689;BME280;39583;54.682;30.662;2023-01-27T12:56:55;100092.91;;;0.66;93.34
53689;BME280;39583;54.682;30.662;2023-01-27T12:59:25;100099.59;;;0.60;94.04
53689;BME280;39583;54.682;30.662;2023-01-27T13:04:43;100095.69;;;0.54;94.36
53689;BME280;39583;54.682;30.662;2023-01-27T13:07:16;100088.72;;;0.53;94.89
53689;BME280;39583;54.682;30.662;2023-01-27T13:10:02;100092.22;;;0.44;94.58
53689;BME280;39583;54.682;30.662;2023-01-27T13:12:46;100097.66;;;0.43;94.58
53689;BME280;39583;54.682;30.662;2023-01-27T13:15:17;100090.25;;;0.37;94.62
53689;BME280;39583;54.682;30.662;2023-01-27T13:17:55;100086.22;;;0.33;94.74
53689;BME280;39583;54.682;30.662;2023-01-27T13:22:53;100103.50;;;0.46;94.83
53689;BME280;39583;54.682;30.662;2023-01-27T13:25:25;100104.19;;;0.48;94.91
53689;BME280;39583;54.682;30.662;2023-01-27T13:27:55;100108.25;;;0.52;94.85
53689;BME280;39583;54.682;30.662;2023-01-27T13:30:29;100102.94;;;0.43;94.39
53689;BME280;39583;54.682;30.662;2023-01-27T13:33:08;100101.56;;;0.29;93.84
53689;BME280;39583;54.682;30.662;2023-01-27T13:35:53;100103.22;;;0.20;94.22
53689;BME280;39583;54.682;30.662;2023-01-27T13:41:21;100111.84;;;0.03;94.00
53689;BME280;39583;54.682;30.662;2023-01-27T13:47:03;100126.00;;;-0.08;94.53
53689;BME280;39583;54.682;30.662;2023-01-27T13:49:59;100128.94;;;-0.11;94.64
53689;BME280;39583;54.682;30.662;2023-01-27T13:52:27;100140.59;;;-0.13;94.76
53689;BME280;39583;54.682;30.662;2023-01-27T13:54:53;100135.44;;;-0.15;94.65
53689;BME280;39583;54.682;30.662;2023-01-27T14:00:13;100139.50;;;-0.20;95.23
53689;BME280;39583;54.682;30.662;2023-01-27T14:13:32;100136.28;;;-0.24;95.10
53689;BME280;39583;54.682;30.662;2023-01-27T14:16:27;100136.97;;;-0.22;95.23
53689;BME280;39583;54.682;30.662;2023-01-27T14:19:06;100132.78;;;-0.24;95.26
53689;BME280;39583;54.682;30.662;2023-01-27T14:21:44;100140.75;;;-0.24;95.13
53689;BME280;39583;54.682;30.662;2023-01-27T14:24:45;100139.31;;;-0.28;95.16
53689;BME280;39583;54.682;30.662;2023-01-27T14:27:27;100125.34;;;-0.40;95.42
53689;BME280;39583;54.682;30.662;2023-01-27T14:30:12;100142.78;;;-0.28;95.86
53689;BME280;39583;54.682;30.662;2023-01-27T14:33:36;100148.91;;;-0.27;96.11
53689;BME280;39583;54.682;30.662;2023-01-27T14:41:15;100173.84;;;-0.30;96.31
53689;BME280;39583;54.682;30.662;2023-01-27T14:49:15;100180.69;;;-0.27;96.76
53689;BME280;39583;54.682;30.662;2023-01-27T14:55:01;100179.47;;;-0.23;97.26
53689;BME280;39583;54.682;30.662;2023-01-27T14:57:32;100174.72;;;-0.20;96.98
53689;BME280;39583;54.682;30.662;2023-01-27T15:09:03;100167.19;;;-0.24;96.42
53689;BME280;39583;54.682;30.662;2023-01-27T15:20:00;100166.97;;;-0.42;96.80
53689;BME280;39583;54.682;30.662;2023-01-27T15:25:50;100163.19;;;-0.49;97.06
53689;BME280;39583;54.682;30.662;2023-01-27T15:28:28;100160.09;;;-0.54;97.04
53689;BME280;39583;54.682;30.662;2023-01-27T15:33:53;100165.13;;;-0.51;97.03
53689;BME280;39583;54.682;30.662;2023-01-27T15:39:16;100158.38;;;-0.65;97.47
53689;BME280;39583;54.682;30.662;2023-01-27T15:44:32;100171.19;;;-0.61;97.46
53689;BME280;39583;54.682;30.662;2023-01-27T15:47:06;100170.38;;;-0.61;97.26
53689;BME280;39583;54.682;30.662;2023-01-27T15:52:44;100177.59;;;-0.63;97.68
53689;BME280;39583;54.682;30.662;2023-01-27T15:55:28;100183.97;;;-0.66;97.05
53689;BME280;39583;54.682;30.662;2023-01-27T15:58:37;100183.03;;;-0.65;97.72
53689;BME280;39583;54.682;30.662;2023-01-27T16:01:10;100189.00;;;-0.63;97.70
53689;BME280;39583;54.682;30.662;2023-01-27T16:03:47;100195.97;;;-0.62;97.83
53689;BME280;39583;54.682;30.662;2023-01-27T16:06:16;100203.38;;;-0.55;98.02
53689;BME280;39583;54.682;30.662;2023-01-27T16:19:32;100201.28;;;-0.62;97.17
53689;BME280;39583;54.682;30.662;2023-01-27T16:22:10;100199.00;;;-0.66;97.53
53689;BME280;39583;54.682;30.662;2023-01-27T16:24:45;100213.38;;;-0.59;97.83
53689;BME280;39583;54.682;30.662;2023-01-27T16:32:18;100229.81;;;-0.55;97.98
53689;BME280;39583;54.682;30.662;2023-01-27T16:34:55;100231.63;;;-0.56;97.71
53689;BME280;39583;54.682;30.662;2023-01-27T16:37:29;100235.25;;;-0.57;97.34
53689;BME280;39583;54.682;30.662;2023-01-27T16:43:04;100231.19;;;-0.61;97.40
53689;BME280;39583;54.682;30.662;2023-01-27T16:45:41;100234.94;;;-0.64;97.19
53689;BME280;39583;54.682;30.662;2023-01-27T16:48:21;100225.44;;;-0.66;97.29
53689;BME280;39583;54.682;30.662;2023-01-27T16:50:51;100230.88;;;-0.68;96.91
53689;BME280;39583;54.682;30.662;2023-01-27T16:53:21;100221.31;;;-0.80;97.11
53689;BME280;39583;54.682;30.662;2023-01-27T16:55:57;100241.00;;;-0.73;96.70
53689;BME280;39583;54.682;30.662;2023-01-27T16:58:25;100243.91;;;-0.76;96.58
53689;BME280;39583;54.682;30.662;2023-01-27T17:00:52;100213.84;;;-0.96;96.59
53689;BME280;39583;54.682;30.662;2023-01-27T17:05:56;100246.13;;;-0.92;96.60
53689;BME280;39583;54.682;30.662;2023-01-27T17:08:26;100240.13;;;-0.94;97.01
53689;BME280;39583;54.682;30.662;2023-01-27T17:11:28;100248.19;;;-0.96;96.94
53689;BME280;39583;54.682;30.662;2023-01-27T17:16:29;100243.88;;;-0.97;97.13
53689;BME280;39583;54.682;30.662;2023-01-27T17:19:14;100242.34;;;-0.99;97.08
53689;BME280;39583;54.682;30.662;2023-01-27T17:21:52;100241.03;;;-1.05;96.84
53689;BME280;39583;54.682;30.662;2023-01-27T17:27:15;100248.66;;;-1.23;95.74
53689;BME280;39583;54.682;30.662;2023-01-27T17:29:44;100240.06;;;-1.36;95.83
53689;BME280;39583;54.682;30.662;2023-01-27T17:32:24;100250.75;;;-1.37;96.05
53689;BME280;39583;54.682;30.662;2023-01-27T17:34:57;100251.22;;;-1.43;96.09
53689;BME280;39583;54.682;30.662;2023-01-27T17:37:24;100247.69;;;-1.54;95.83
53689;BME280;39583;54.682;30.662;2023-01-27T17:39:53;100262.44;;;-1.51;96.02
53689;BME280;39583;54.682;30.662;2023-01-27T17:42:20;100261.47;;;-1.50;96.24
53689;BME280;39583;54.682;30.662;2023-01-27T17:44:50;100263.03;;;-1.48;96.81
53689;BME280;39583;54.682;30.662;2023-01-27T17:47:17;100263.59;;;-1.44;96.90
53689;BME280;39583;54.682;30.662;2023-01-27T17:49:49;100261.69;;;-1.42;97.16
53689;BME280;39583;54.682;30.662;2023-01-27T17:52:21;100265.19;;;-1.41;97.34
53689;BME280;39583;54.682;30.662;2023-01-27T17:54:49;100263.38;;;-1.41;97.29
53689;BME280;39583;54.682;30.662;2023-01-27T17:57:24;100252.56;;;-1.49;96.92
53689;BME280;39583;54.682;30.662;2023-01-27T18:00:09;100267.09;;;-1.43;96.96
53689;BME280;39583;54.682;30.662;2023-01-27T18:02:49;100269.00;;;-1.45;97.01
53689;BME280;39583;54.682;30.662;2023-01-27T18:05:21;100262.31;;;-1.50;96.97
53689;BME280;39583;54.682;30.662;2023-01-27T18:07:49;100259.06;;;-1.53;96.30
53689;BME280;39583;54.682;30.662;2023-01-27T18:15:57;100263.28;;;-1.51;96.55
53689;BME280;39583;54.682;30.662;2023-01-27T18:18:30;100264.56;;;-1.45;96.93
53689;BME280;39583;54.682;30.662;2023-01-27T18:23:32;100261.94;;;-1.45;96.51
53689;BME280;39583;54.682;30.662;2023-01-27T18:28:38;100259.81;;;-1.62;95.50
53689;BME280;39583;54.682;30.662;2023-01-27T18:31:17;100262.97;;;-1.80;95.13
53689;BME280;39583;54.682;30.662;2023-01-27T18:33:45;100274.34;;;-1.90;94.87
53689;BME280;39583;54.682;30.662;2023-01-27T18:36:23;100279.75;;;-2.03;94.44
53689;BME280;39583;54.682;30.662;2023-01-27T18:38:50;100280.22;;;-2.09;95.00
53689;BME280;39583;54.682;30.662;2023-01-27T18:41:27;100278.78;;;-2.13;95.14
53689;BME280;39583;54.682;30.662;2023-01-27T18:43:54;100278.91;;;-2.15;95.05
53689;BME280;39583;54.682;30.662;2023-01-27T18:46:21;100279.47;;;-2.22;94.98
53689;BME280;39583;54.682;30.662;2023-01-27T18:48:48;100281.66;;;-2.27;95.09
53689;BME280;39583;54.682;30.662;2023-01-27T18:51:15;100286.69;;;-2.24;95.95
53689;BME280;39583;54.682;30.662;2023-01-27T18:53:41;100279.47;;;-2.22;96.09
53689;BME280;39583;54.682;30.662;2023-01-27T18:56:08;100259.69;;;-2.28;96.30
53689;BME280;39583;54.682;30.662;2023-01-27T18:58:34;100273.16;;;-2.20;96.71
53689;BME280;39583;54.682;30.662;2023-01-27T19:01:01;100249.03;;;-2.26;96.83
53689;BME280;39583;54.682;30.662;2023-01-27T19:03:29;100277.56;;;-2.09;96.68
